createdAt,value
2022-11-10T00:02:22.265Z,1.20
2022-11-10T00:04:52.181Z,0.88
2022-11-10T00:07:19.802Z,0.60
2022-11-10T00:09:47.398Z,1.08
2022-11-10T00:12:14.912Z,0.80
2022-11-10T00:15:00.858Z,0.80
2022-11-10T00:17:28.317Z,1.10
2022-11-10T00:19:56.977Z,0.88
2022-11-10T00:22:26.132Z,0.70
2022-11-10T00:24:53.806Z,0.70
2022-11-10T00:27:21.302Z,0.75
2022-11-10T00:29:48.762Z,1.38
2022-11-10T00:32:16.503Z,0.80
2022-11-10T00:34:44.111Z,1.05
2022-11-10T00:37:11.661Z,2.03
2022-11-10T00:39:39.190Z,1.17
2022-11-10T00:42:07.787Z,1.00
2022-11-10T00:44:35.506Z,1.00
2022-11-10T00:47:03.027Z,0.68
2022-11-10T00:49:30.552Z,0.70
2022-11-10T00:51:58.303Z,0.90
2022-11-10T00:54:27.189Z,0.75
2022-11-10T00:56:54.886Z,0.70
2022-11-10T00:59:24.567Z,1.17
2022-11-10T01:01:52.839Z,1.08
2022-11-10T01:04:20.348Z,0.95
2022-11-10T01:06:48.895Z,0.80
2022-11-10T01:09:16.430Z,0.75
2022-11-10T01:11:45.316Z,0.80
2022-11-10T01:14:12.862Z,1.33
2022-11-10T01:16:40.372Z,0.68
2022-11-10T01:19:09.178Z,0.50
2022-11-10T01:21:36.733Z,0.30
2022-11-10T01:24:04.446Z,0.77
2022-11-10T01:26:32.008Z,0.90
2022-11-10T01:28:59.577Z,1.10
2022-11-10T01:31:27.158Z,0.60
2022-11-10T01:33:55.318Z,0.60
2022-11-10T01:36:22.797Z,0.52
2022-11-10T01:38:50.236Z,0.55
2022-11-10T01:41:20.393Z,0.80
2022-11-10T01:43:49.094Z,1.45
2022-11-10T01:46:17.324Z,0.80
2022-11-10T01:48:52.077Z,0.50
2022-11-10T01:51:21.980Z,0.30
2022-11-10T01:53:59.314Z,1.10
2022-11-10T01:56:28.290Z,0.60
2022-11-10T01:58:57.223Z,0.47
2022-11-10T02:01:26.291Z,0.77
2022-11-10T02:03:58.198Z,0.93
2022-11-10T02:06:27.500Z,0.82
2022-11-10T02:08:55.655Z,0.65
2022-11-10T02:11:23.901Z,1.08
2022-11-10T02:13:51.567Z,0.60
2022-11-10T02:16:20.092Z,0.60
2022-11-10T02:18:47.743Z,0.70
2022-11-10T02:21:18.186Z,0.70
2022-11-10T02:23:46.845Z,0.77
2022-11-10T02:26:39.712Z,0.57
2022-11-10T02:29:10.082Z,0.85
2022-11-10T02:31:37.615Z,0.73
2022-11-10T02:34:05.879Z,0.70
2022-11-10T02:36:33.463Z,1.70
2022-11-10T02:39:00.946Z,0.90
2022-11-10T02:41:28.677Z,0.75
2022-11-10T02:43:57.736Z,1.27
2022-11-10T02:46:25.671Z,1.15
2022-11-10T02:48:53.015Z,0.85
2022-11-10T02:51:20.891Z,1.65
2022-11-10T02:53:48.458Z,1.13
2022-11-10T02:56:16.042Z,1.05
2022-11-10T02:58:43.587Z,0.85
2022-11-10T03:01:11.138Z,1.15
2022-11-10T03:03:39.328Z,0.73
2022-11-10T03:06:06.948Z,0.68
2022-11-10T03:08:34.465Z,0.82
2022-11-10T03:11:02.110Z,1.27
2022-11-10T03:13:45.388Z,1.00
2022-11-10T03:16:19.117Z,1.10
2022-11-10T03:18:47.870Z,0.80
2022-11-10T03:21:15.667Z,0.90
2022-11-10T03:23:43.826Z,1.08
2022-11-10T03:26:11.337Z,0.63
2022-11-10T03:28:38.886Z,0.88
2022-11-10T03:31:06.765Z,1.33
2022-11-10T03:33:34.572Z,1.17
2022-11-10T03:36:02.063Z,0.93
2022-11-10T03:38:30.271Z,0.88
2022-11-10T03:41:18.274Z,1.25
2022-11-10T03:43:45.809Z,1.33
2022-11-10T03:46:13.403Z,1.45
2022-11-10T03:48:41.164Z,1.30
2022-11-10T03:51:10.572Z,1.27
2022-11-10T03:53:38.883Z,1.13
2022-11-10T03:56:06.676Z,1.40
2022-11-10T03:58:34.931Z,0.82
2022-11-10T04:01:03.027Z,1.08
2022-11-10T04:03:30.563Z,1.00
2022-11-10T04:06:16.681Z,0.90
2022-11-10T04:09:02.631Z,0.90
2022-11-10T04:11:50.676Z,0.90
2022-11-10T04:14:36.332Z,1.38
2022-11-10T04:17:04.505Z,1.00
2022-11-10T04:19:32.843Z,0.68
2022-11-10T04:22:00.456Z,1.17
2022-11-10T04:24:28.733Z,1.17
2022-11-10T04:26:56.263Z,0.63
2022-11-10T04:29:23.937Z,0.70
2022-11-10T04:31:51.699Z,0.60
2022-11-10T04:34:19.257Z,1.42
2022-11-10T04:36:46.879Z,0.82
2022-11-10T04:39:14.435Z,0.65
2022-11-10T04:41:42.335Z,0.90
2022-11-10T04:44:09.839Z,0.77
2022-11-10T04:46:38.720Z,1.27
2022-11-10T04:49:07.166Z,0.98
2022-11-10T04:51:36.372Z,1.15
2022-11-10T04:54:04.858Z,1.77
2022-11-10T04:56:32.357Z,1.00
2022-11-10T04:59:00.837Z,1.08
2022-11-10T05:01:29.910Z,0.77
2022-11-10T05:03:57.549Z,1.10
2022-11-10T05:06:25.084Z,1.25
2022-11-10T05:08:55.385Z,1.13
2022-11-10T05:11:23.108Z,0.88
2022-11-10T05:13:50.652Z,0.65
2022-11-10T05:16:18.281Z,1.10
2022-11-10T05:18:45.845Z,1.30
2022-11-10T05:21:13.342Z,0.82
2022-11-10T05:23:41.229Z,1.23
2022-11-10T05:26:16.351Z,1.38
2022-11-10T05:28:45.286Z,1.38
2022-11-10T05:31:13.364Z,1.27
2022-11-10T05:33:41.246Z,1.27
2022-11-10T05:36:09.118Z,1.20
2022-11-10T05:38:41.834Z,1.38
2022-11-10T05:41:10.849Z,1.15
2022-11-10T05:43:38.391Z,1.52
2022-11-10T05:46:06.264Z,1.27
2022-11-10T05:48:33.831Z,1.00
2022-11-10T05:51:01.348Z,1.30
2022-11-10T05:53:30.116Z,1.20
2022-11-10T05:55:57.665Z,1.70
2022-11-10T05:58:26.068Z,1.27
2022-11-10T06:00:53.681Z,0.90
2022-11-10T06:03:21.682Z,0.77
2022-11-10T06:05:49.568Z,1.20
2022-11-10T06:08:18.529Z,1.30
2022-11-10T06:10:49.222Z,0.95
2022-11-10T06:13:16.735Z,1.00
2022-11-10T06:15:50.039Z,0.88
2022-11-10T06:18:20.317Z,0.75
2022-11-10T06:20:48.423Z,1.13
2022-11-10T06:23:15.987Z,0.98
2022-11-10T06:25:44.336Z,1.17
2022-11-10T06:28:11.887Z,0.85
2022-11-10T06:30:39.733Z,0.90
2022-11-10T06:33:07.343Z,1.15
2022-11-10T06:35:34.883Z,1.25
2022-11-10T06:38:03.589Z,1.10
2022-11-10T06:40:31.713Z,0.65
2022-11-10T06:42:59.508Z,1.30
2022-11-10T06:45:28.991Z,1.83
2022-11-10T06:48:00.370Z,1.38
2022-11-10T06:50:27.956Z,1.05
2022-11-10T06:52:56.983Z,1.23
2022-11-10T06:55:24.822Z,0.88
2022-11-10T06:57:52.854Z,0.90
2022-11-10T07:00:20.577Z,1.20
2022-11-10T07:02:48.129Z,1.08
2022-11-10T07:05:16.353Z,1.15
2022-11-10T07:07:45.834Z,1.10
2022-11-10T07:10:13.364Z,0.75
2022-11-10T07:12:40.966Z,1.00
2022-11-10T07:15:08.870Z,0.93
2022-11-10T07:17:45.334Z,1.02
2022-11-10T07:20:13.599Z,0.75
2022-11-10T07:22:41.148Z,0.98
2022-11-10T07:25:09.652Z,0.90
2022-11-10T07:27:37.136Z,1.02
2022-11-10T07:30:05.398Z,1.00
2022-11-10T07:32:33.658Z,0.90
2022-11-10T07:35:01.203Z,0.77
2022-11-10T07:37:31.891Z,1.33
2022-11-10T07:39:59.451Z,1.02
2022-11-10T07:42:27.209Z,1.00
2022-11-10T07:44:54.765Z,0.50
2022-11-10T07:47:23.338Z,0.85
2022-11-10T07:49:50.867Z,1.02
2022-11-10T07:52:18.490Z,1.15
2022-11-10T07:54:46.070Z,1.35
2022-11-10T07:57:16.465Z,1.27
2022-11-10T07:59:44.001Z,0.88
2022-11-10T08:02:13.547Z,0.90
2022-11-10T08:04:41.118Z,0.80
2022-11-10T08:07:08.939Z,1.58
2022-11-10T08:09:37.039Z,2.28
2022-11-10T08:12:04.795Z,0.80
2022-11-10T08:14:32.574Z,1.50
2022-11-10T08:17:01.207Z,0.85
2022-11-10T08:19:28.720Z,0.82
2022-11-10T08:21:56.217Z,1.55
2022-11-10T08:24:23.800Z,1.00
2022-11-10T08:26:51.563Z,1.00
2022-11-10T08:29:19.864Z,1.00
2022-11-10T08:31:47.452Z,1.00
2022-11-10T08:34:15.706Z,1.13
2022-11-10T08:36:44.584Z,0.80
2022-11-10T08:39:13.274Z,0.90
2022-11-10T08:41:45.133Z,1.35
2022-11-10T08:44:19.654Z,1.23
2022-11-10T08:46:49.509Z,0.75
2022-11-10T08:49:17.128Z,1.15
2022-11-10T08:51:44.629Z,0.77
2022-11-10T08:54:12.453Z,1.30
2022-11-10T08:56:39.983Z,0.75
2022-11-10T08:59:08.402Z,1.05
2022-11-10T09:01:35.987Z,0.75
2022-11-10T09:04:03.432Z,0.70
2022-11-10T09:06:31.107Z,1.02
2022-11-10T09:08:58.693Z,1.00
2022-11-10T09:11:27.289Z,1.50
2022-11-10T09:13:54.898Z,0.85
2022-11-10T09:16:23.189Z,0.82
2022-11-10T09:18:50.715Z,1.63
2022-11-10T09:21:19.423Z,2.33
2022-11-10T09:23:48.045Z,0.90
2022-11-10T09:26:15.638Z,1.17
2022-11-10T09:28:43.188Z,0.98
2022-11-10T09:31:10.954Z,1.65
2022-11-10T09:33:38.513Z,1.27
2022-11-10T09:36:07.631Z,1.15
2022-11-10T09:38:36.803Z,1.08
2022-11-10T09:41:12.027Z,0.93
2022-11-10T09:43:39.558Z,0.80
2022-11-10T09:46:18.933Z,0.90
2022-11-10T09:48:55.643Z,1.83
2022-11-10T09:51:26.122Z,0.80
2022-11-10T09:54:06.833Z,0.98
2022-11-10T09:56:35.621Z,1.08
2022-11-10T09:59:11.569Z,0.65
2022-11-10T10:01:45.047Z,0.82
2022-11-10T10:04:21.821Z,1.15
2022-11-10T10:07:11.697Z,1.23
2022-11-10T10:09:44.119Z,1.20
2022-11-10T10:12:21.097Z,1.05
2022-11-10T10:15:07.325Z,1.33
2022-11-10T10:17:55.310Z,1.50
2022-11-10T10:20:22.987Z,1.10
2022-11-10T10:22:56.728Z,0.70
2022-11-10T10:25:27.339Z,1.00
2022-11-10T10:28:00.856Z,1.20
2022-11-10T10:30:29.046Z,1.15
2022-11-10T10:32:58.846Z,0.90
2022-11-10T10:35:26.616Z,1.02
2022-11-10T10:37:57.180Z,0.98
2022-11-10T10:40:25.482Z,0.98
2022-11-10T10:42:53.119Z,1.17
2022-11-10T10:45:31.916Z,0.98
2022-11-10T10:48:00.166Z,1.20
2022-11-10T10:50:30.327Z,1.38
2022-11-10T10:53:13.569Z,1.50
2022-11-10T10:58:23.177Z,1.55
2022-11-10T11:00:52.688Z,1.02
2022-11-10T11:03:40.133Z,1.00
2022-11-10T11:06:30.437Z,2.17
2022-11-10T11:09:16.518Z,1.10
2022-11-10T11:11:44.997Z,1.58
2022-11-10T11:14:23.765Z,1.90
2022-11-10T11:16:53.692Z,1.23
2022-11-10T11:19:22.580Z,1.60
2022-11-10T11:22:08.545Z,1.05
2022-11-10T11:24:44.290Z,2.05
2022-11-10T11:27:24.220Z,1.88
2022-11-10T11:29:53.624Z,1.52
2022-11-10T11:32:30.368Z,1.70
2022-11-10T11:35:06.763Z,2.08
2022-11-10T11:37:52.794Z,1.35
2022-11-10T11:40:21.082Z,1.20
2022-11-10T11:42:48.683Z,1.70
2022-11-10T11:45:36.073Z,2.50
2022-11-10T11:48:13.078Z,1.52
2022-11-10T11:50:43.802Z,1.17
2022-11-10T11:53:18.622Z,1.88
2022-11-10T11:56:04.675Z,1.83
2022-11-10T11:58:32.448Z,2.45
2022-11-10T12:01:24.260Z,1.73
2022-11-10T12:04:07.323Z,1.73
2022-11-10T12:06:37.929Z,1.48
2022-11-10T12:09:27.781Z,1.58
2022-11-10T12:11:55.353Z,1.70
2022-11-10T12:14:35.796Z,1.38
2022-11-10T12:17:14.597Z,1.52
2022-11-10T12:19:52.398Z,1.40
2022-11-10T12:22:19.948Z,1.75
2022-11-10T12:24:55.389Z,1.67
2022-11-10T12:27:32.974Z,2.10
2022-11-10T12:30:07.853Z,1.70
2022-11-10T12:32:42.628Z,1.50
2022-11-10T12:35:21.476Z,1.65
2022-11-10T12:37:55.319Z,1.42
2022-11-10T12:40:29.187Z,1.98
2022-11-10T12:43:05.865Z,1.42
2022-11-10T12:45:38.180Z,1.90
2022-11-10T12:48:07.734Z,1.40
2022-11-10T12:50:53.787Z,1.02
2022-11-10T12:53:23.900Z,1.60
2022-11-10T12:56:10.367Z,1.80
2022-11-10T12:58:38.240Z,2.03
2022-11-10T13:01:07.153Z,1.45
2022-11-10T13:03:37.989Z,1.65
2022-11-10T13:06:06.798Z,1.40
2022-11-10T13:08:34.381Z,1.95
2022-11-10T13:11:01.926Z,3.45
2022-11-10T13:13:29.716Z,1.88
2022-11-10T13:15:58.163Z,2.38
2022-11-10T13:18:31.952Z,2.50
2022-11-10T13:21:00.118Z,1.90
2022-11-10T13:23:31.357Z,2.15
2022-11-10T13:26:10.162Z,2.15
2022-11-10T13:28:52.843Z,2.38
2022-11-10T13:31:29.263Z,2.90
2022-11-10T13:34:08.893Z,1.98
2022-11-10T13:36:41.550Z,2.50
2022-11-10T13:39:35.014Z,2.85
2022-11-10T13:42:04.642Z,2.00
2022-11-10T13:44:33.817Z,2.65
2022-11-10T13:47:04.313Z,2.70
2022-11-10T13:49:35.833Z,2.53
2022-11-10T13:52:09.028Z,2.53
2022-11-10T13:54:36.513Z,3.65
2022-11-10T13:57:16.519Z,2.95
2022-11-10T13:59:47.977Z,2.05
2022-11-10T14:02:37.834Z,2.67
2022-11-10T14:05:08.496Z,2.92
2022-11-10T14:07:39.576Z,3.40
2022-11-10T14:10:13.185Z,4.57
2022-11-10T14:12:45.418Z,3.42
2022-11-10T14:15:18.382Z,2.65
2022-11-10T14:17:48.484Z,3.38
2022-11-10T14:20:23.257Z,4.05
2022-11-10T14:22:52.066Z,3.33
2022-11-10T14:25:27.473Z,3.65
2022-11-10T14:27:58.237Z,2.88
2022-11-10T14:30:26.824Z,3.40
2022-11-10T14:33:05.317Z,4.43
2022-11-10T14:35:34.849Z,4.18
2022-11-10T14:38:02.984Z,4.63
2022-11-10T14:40:31.159Z,3.90
2022-11-10T14:42:58.998Z,3.40
2022-11-10T14:45:29.497Z,3.78
2022-11-10T14:47:58.948Z,4.03
2022-11-10T14:50:34.467Z,5.13
2022-11-10T14:53:02.314Z,5.45
2022-11-10T14:55:34.881Z,4.10
2022-11-10T14:58:14.274Z,3.78
2022-11-10T15:00:42.621Z,4.05
2022-11-10T15:03:12.723Z,3.65
2022-11-10T15:05:40.489Z,4.45
2022-11-10T15:08:09.432Z,3.78
2022-11-10T15:10:42.698Z,3.47
2022-11-10T15:13:13.397Z,3.38
2022-11-10T15:15:41.703Z,4.38
2022-11-10T15:18:29.950Z,4.38
2022-11-10T15:21:04.999Z,3.65
2022-11-10T15:23:34.351Z,3.20
2022-11-10T15:26:01.925Z,3.17
2022-11-10T15:28:36.194Z,4.05
2022-11-10T15:31:23.892Z,2.92
2022-11-10T15:34:14.925Z,3.20
2022-11-10T15:36:42.351Z,2.10
2022-11-10T15:39:12.945Z,2.67
2022-11-10T15:41:44.637Z,4.80
2022-11-10T15:44:16.251Z,3.63
2022-11-10T15:46:44.356Z,3.33
2022-11-10T15:49:17.802Z,3.42
2022-11-10T15:51:45.557Z,3.25
2022-11-10T15:54:12.961Z,3.33
2022-11-10T15:56:40.287Z,4.57
2022-11-10T15:59:07.640Z,2.65
2022-11-10T16:01:35.141Z,2.70
2022-11-10T16:04:02.562Z,2.47
2022-11-10T16:06:31.117Z,2.47
2022-11-10T16:08:58.646Z,4.07
2022-11-10T16:11:27.066Z,3.22
2022-11-10T16:13:55.432Z,3.25
2022-11-10T16:16:24.586Z,3.25
2022-11-10T16:18:52.474Z,4.75
2022-11-10T16:21:23.944Z,2.72
2022-11-10T16:23:52.224Z,3.83
2022-11-10T16:26:21.994Z,3.60
2022-11-10T16:28:49.422Z,2.80
2022-11-10T16:31:17.437Z,2.78
2022-11-10T16:33:46.391Z,2.70
2022-11-10T16:36:21.072Z,2.17
2022-11-10T16:38:48.583Z,2.78
2022-11-10T16:41:16.028Z,4.55
2022-11-10T16:43:43.358Z,2.83
2022-11-10T16:46:24.492Z,2.58
2022-11-10T16:48:54.190Z,2.10
2022-11-10T16:51:29.773Z,2.50
2022-11-10T16:53:59.879Z,2.95
2022-11-10T16:56:28.064Z,3.15
2022-11-10T16:58:55.833Z,3.88
2022-11-10T17:01:24.826Z,3.45
2022-11-10T17:03:54.593Z,2.92
2022-11-10T17:06:22.574Z,4.97
2022-11-10T17:08:50.966Z,2.75
2022-11-10T17:11:19.081Z,3.13
2022-11-10T17:13:47.800Z,4.10
2022-11-10T17:16:20.880Z,2.42
2022-11-10T17:18:48.694Z,3.63
2022-11-10T17:21:16.279Z,2.88
2022-11-10T17:23:43.840Z,3.17
2022-11-10T17:26:12.513Z,3.58
2022-11-10T17:31:17.102Z,2.67
2022-11-10T17:36:26.516Z,3.25
2022-11-10T17:38:54.280Z,2.58
2022-11-10T17:41:21.984Z,2.13
2022-11-10T17:43:49.604Z,2.38
2022-11-10T17:46:17.437Z,2.58
2022-11-10T17:48:45.192Z,2.80
2022-11-10T17:51:14.944Z,3.38
2022-11-10T17:53:43.456Z,3.08
2022-11-10T17:56:10.958Z,2.28
2022-11-10T18:28:27.589Z,3.15
2022-11-10T18:30:55.178Z,3.20
2022-11-10T18:33:22.946Z,2.70
2022-11-10T18:35:50.727Z,2.95
2022-11-10T18:38:18.471Z,2.80
2022-11-10T18:40:45.958Z,3.45
2022-11-10T18:43:13.642Z,3.50
2022-11-10T18:45:41.108Z,2.92
2022-11-10T18:48:08.743Z,2.90
2022-11-10T18:50:38.401Z,2.90
2022-11-10T18:53:06.318Z,2.50
2022-11-10T18:55:33.718Z,2.55
2022-11-10T18:58:01.248Z,3.53
2022-11-10T19:00:28.767Z,3.78
2022-11-10T19:02:57.398Z,3.30
2022-11-10T19:05:25.954Z,2.30
2022-11-10T19:07:53.467Z,4.20
2022-11-10T19:10:21.026Z,2.20
2022-11-10T19:12:48.732Z,2.30
2022-11-10T19:15:16.217Z,3.35
2022-11-10T19:17:43.712Z,3.78
2022-11-10T19:20:13.553Z,2.83
2022-11-10T19:22:41.050Z,3.20
2022-11-10T19:25:09.327Z,2.60
2022-11-10T19:27:37.143Z,4.10
2022-11-10T19:30:04.908Z,2.83
2022-11-10T19:32:32.468Z,2.63
2022-11-10T19:35:00.029Z,2.97
2022-11-10T19:37:30.952Z,3.38
2022-11-10T19:40:01.656Z,2.63
2022-11-10T19:42:29.212Z,3.38
2022-11-10T19:44:56.669Z,3.95
2022-11-10T19:47:26.351Z,3.35
2022-11-10T19:49:53.832Z,3.22
2022-11-10T19:52:21.387Z,3.08
2022-11-10T19:54:49.136Z,2.72
2022-11-10T19:57:16.752Z,3.75
2022-11-10T20:18:34.791Z,2.55
2022-11-10T20:31:45.046Z,3.40
2022-11-10T20:34:12.661Z,2.72
2022-11-10T20:36:40.135Z,3.00
2022-11-10T20:39:07.760Z,3.08
2022-11-10T20:41:35.348Z,3.17
2022-11-10T20:44:03.027Z,3.35
2022-11-10T20:46:53.469Z,4.18
2022-11-10T20:49:18.218Z,2.88
2022-11-10T20:51:45.772Z,4.47
2022-11-10T20:54:15.673Z,2.78
2022-11-10T20:56:43.225Z,3.63
2022-11-10T20:59:10.791Z,3.92
2022-11-10T21:01:38.524Z,3.10
2022-11-10T21:04:06.984Z,4.57
2022-11-10T21:06:34.590Z,2.45
2022-11-10T21:09:02.935Z,2.72
2022-11-10T21:11:49.044Z,3.50
2022-11-10T21:14:17.406Z,3.90
2022-11-10T21:16:45.051Z,3.10
2022-11-10T21:19:12.605Z,2.85
2022-11-10T21:21:40.153Z,3.55
2022-11-10T21:24:08.467Z,3.38
2022-11-10T21:26:36.470Z,3.30
2022-11-10T21:29:05.018Z,4.10
2022-11-10T21:31:32.606Z,3.75
2022-11-10T21:34:00.561Z,3.40
2022-11-10T21:36:32.300Z,3.40
2022-11-10T21:39:01.004Z,3.28
2022-11-10T21:41:28.775Z,2.22
2022-11-10T21:43:56.277Z,2.70
2022-11-10T21:46:23.832Z,3.00
2022-11-10T21:48:51.861Z,3.70
2022-11-10T21:51:21.689Z,2.58
2022-11-10T21:53:49.229Z,2.25
2022-11-10T21:56:16.833Z,3.15
2022-11-10T21:58:44.418Z,2.75
2022-11-10T22:01:13.806Z,4.20
2022-11-10T22:03:41.558Z,2.85
2022-11-10T22:06:10.719Z,3.60
2022-11-10T22:08:38.696Z,3.00
2022-11-10T22:11:25.522Z,2.95
2022-11-10T22:24:52.201Z,2.50
2022-11-10T22:27:19.756Z,3.03
2022-11-10T22:29:47.349Z,2.70
2022-11-10T22:32:14.908Z,1.60
2022-11-10T22:34:42.467Z,3.67
2022-11-10T22:37:09.840Z,2.58
2022-11-10T22:39:55.719Z,2.78
2022-11-10T22:42:41.840Z,3.00
2022-11-10T22:45:09.684Z,2.22
2022-11-10T22:47:55.389Z,2.25
2022-11-10T22:50:23.300Z,2.38
2022-11-10T22:52:50.806Z,2.55
2022-11-10T22:55:18.414Z,2.10
2022-11-10T22:57:46.017Z,1.88
2022-11-10T23:00:13.956Z,2.90
2022-11-10T23:02:41.545Z,1.88
2022-11-10T23:05:09.111Z,2.42
2022-11-10T23:07:36.626Z,1.85
2022-11-10T23:10:05.187Z,3.38
2022-11-10T23:12:32.754Z,1.70
2022-11-10T23:15:00.244Z,3.05
2022-11-10T23:17:27.762Z,1.92
2022-11-10T23:19:55.535Z,2.22
2022-11-10T23:22:23.067Z,2.22
2022-11-10T23:24:56.800Z,2.65
2022-11-10T23:27:25.055Z,1.95
2022-11-10T23:29:52.704Z,2.63
2022-11-10T23:32:20.277Z,2.10
2022-11-10T23:34:47.820Z,2.25
2022-11-10T23:37:15.640Z,2.65
2022-11-10T23:39:43.120Z,2.30
2022-11-10T23:42:10.794Z,2.50
2022-11-10T23:44:38.278Z,1.80
2022-11-10T23:47:05.824Z,2.22
2022-11-10T23:49:33.397Z,1.20
2022-11-10T23:52:00.864Z,2.30
2022-11-10T23:54:28.549Z,2.00
2022-11-10T23:56:56.275Z,1.88
2022-11-10T23:59:23.888Z,2.47
